createdAt,value
2022-10-26T00:00:38.776Z,8.75
2022-10-26T00:01:41.035Z,8.63
2022-10-26T00:02:43.367Z,8.25
2022-10-26T00:03:46.733Z,8.88
2022-10-26T00:04:48.922Z,9.23
2022-10-26T00:05:51.147Z,10.90
2022-10-26T00:06:53.251Z,9.55
2022-10-26T00:07:55.400Z,10.63
2022-10-26T00:08:58.216Z,8.00
2022-10-26T00:10:00.351Z,10.23
2022-10-26T00:11:02.937Z,10.65
2022-10-26T00:12:05.383Z,7.05
2022-10-26T00:13:11.092Z,9.88
2022-10-26T00:14:13.227Z,8.55
2022-10-26T00:15:15.411Z,8.80
2022-10-26T00:16:26.978Z,9.07
2022-10-26T00:17:29.121Z,9.90
2022-10-26T00:18:31.275Z,10.52
2022-10-26T00:19:34.220Z,10.10
2022-10-26T00:20:36.452Z,13.52
2022-10-26T00:21:38.550Z,8.45
2022-10-26T00:22:41.143Z,10.38
2022-10-26T00:23:43.354Z,11.35
2022-10-26T00:24:45.572Z,10.15
2022-10-26T00:25:55.492Z,8.85
2022-10-26T00:26:57.636Z,9.48
2022-10-26T00:27:59.792Z,9.82
2022-10-26T00:29:02.034Z,15.77
2022-10-26T00:30:05.818Z,9.80
2022-10-26T00:31:15.879Z,11.68
2022-10-26T00:32:18.046Z,10.38
2022-10-26T00:33:20.289Z,12.82
2022-10-26T00:34:22.474Z,12.45
2022-10-26T00:35:44.717Z,15.32
2022-10-26T00:36:46.842Z,8.63
2022-10-26T00:37:49.193Z,13.45
2022-10-26T00:38:53.327Z,8.35
2022-10-26T00:39:55.488Z,8.60
2022-10-26T00:42:04.726Z,8.85
2022-10-26T00:43:33.621Z,14.13
2022-10-26T00:44:57.954Z,10.95
2022-10-26T00:46:01.753Z,8.43
2022-10-26T00:47:05.266Z,8.05
2022-10-26T00:48:14.166Z,9.63
2022-10-26T00:49:20.872Z,8.23
2022-10-26T00:50:28.704Z,8.73
2022-10-26T00:51:40.547Z,10.23
2022-10-26T00:52:42.976Z,9.05
2022-10-26T00:53:45.669Z,9.88
2022-10-26T00:54:48.010Z,7.22
2022-10-26T00:55:52.486Z,8.32
2022-10-26T00:56:55.418Z,9.63
2022-10-26T00:57:57.994Z,11.55
2022-10-26T00:59:05.527Z,8.25
2022-10-26T01:00:08.861Z,13.07
2022-10-26T01:01:11.551Z,8.88
2022-10-26T01:02:13.798Z,14.32
2022-10-26T01:03:17.012Z,11.25
2022-10-26T01:04:20.025Z,11.23
2022-10-26T01:05:22.265Z,9.43
2022-10-26T01:06:24.438Z,11.13
2022-10-26T01:07:27.591Z,12.93
2022-10-26T01:08:30.398Z,10.35
2022-10-26T01:09:33.153Z,11.05
2022-10-26T01:10:37.871Z,9.85
2022-10-26T01:11:40.048Z,8.80
2022-10-26T01:12:42.500Z,8.95
2022-10-26T01:13:46.359Z,10.05
2022-10-26T01:14:48.885Z,10.23
2022-10-26T01:16:22.981Z,7.43
2022-10-26T01:17:41.733Z,8.30
2022-10-26T01:18:59.076Z,9.75
2022-10-26T01:20:35.295Z,9.13
2022-10-26T01:21:52.705Z,9.55
2022-10-26T01:23:19.785Z,8.40
2022-10-26T01:24:57.243Z,9.00
2022-10-26T01:25:59.298Z,6.35
2022-10-26T01:27:49.898Z,10.82
2022-10-26T01:29:08.973Z,9.10
2022-10-26T01:30:22.404Z,8.35
2022-10-26T01:31:39.311Z,6.93
2022-10-26T01:32:59.505Z,8.63
2022-10-26T01:34:06.435Z,8.68
2022-10-26T01:35:28.613Z,9.95
2022-10-26T01:36:39.173Z,10.00
2022-10-26T01:37:48.249Z,8.63
2022-10-26T01:39:15.058Z,8.38
2022-10-26T01:40:28.094Z,8.48
2022-10-26T01:41:38.559Z,10.63
2022-10-26T01:42:44.481Z,12.02
2022-10-26T01:43:55.158Z,9.43
2022-10-26T01:45:03.904Z,10.05
2022-10-26T01:46:08.016Z,8.73
2022-10-26T01:47:14.030Z,8.43
2022-10-26T01:48:19.096Z,11.43
2022-10-26T01:49:28.967Z,13.18
2022-10-26T01:50:32.421Z,11.25
2022-10-26T01:51:35.561Z,12.77
2022-10-26T01:52:37.876Z,8.15
2022-10-26T01:53:47.190Z,9.57
2022-10-26T01:54:49.580Z,11.55
2022-10-26T01:55:53.733Z,9.57
2022-10-26T01:57:01.207Z,15.10
2022-10-26T01:58:15.265Z,10.57
2022-10-26T01:59:26.741Z,10.73
2022-10-26T02:00:31.468Z,7.18
2022-10-26T02:01:48.835Z,9.55
2022-10-26T02:03:23.670Z,9.35
2022-10-26T02:05:02.067Z,19.25
2022-10-26T02:06:29.575Z,11.55
2022-10-26T02:08:07.783Z,11.90
2022-10-26T02:09:25.094Z,10.10
2022-10-26T02:10:32.775Z,9.50
2022-10-26T02:11:51.239Z,12.15
2022-10-26T02:13:06.924Z,10.75
2022-10-26T02:14:22.430Z,11.68
2022-10-26T02:15:42.188Z,13.23
2022-10-26T02:17:01.995Z,10.65
2022-10-26T02:18:18.446Z,10.98
2022-10-26T02:19:52.808Z,15.75
2022-10-26T02:21:01.291Z,12.80
2022-10-26T02:22:15.743Z,10.57
2022-10-26T02:23:19.927Z,14.88
2022-10-26T02:24:23.362Z,12.77
2022-10-26T02:25:32.024Z,17.10
2022-10-26T02:26:36.142Z,14.13
2022-10-26T02:27:44.489Z,14.77
2022-10-26T02:28:50.746Z,14.02
2022-10-26T02:29:55.753Z,15.02
2022-10-26T02:31:00.928Z,15.13
2022-10-26T02:32:03.975Z,13.40
2022-10-26T02:33:08.320Z,15.18
2022-10-26T02:34:14.071Z,13.90
2022-10-26T02:35:20.758Z,21.40
2022-10-26T02:36:28.069Z,12.63
2022-10-26T02:37:32.714Z,13.38
2022-10-26T02:38:37.602Z,12.82
2022-10-26T02:39:41.797Z,15.48
2022-10-26T02:40:46.689Z,12.98
2022-10-26T02:41:49.835Z,14.77
2022-10-26T02:42:54.050Z,15.18
2022-10-26T02:44:17.523Z,16.85
2022-10-26T02:45:25.930Z,15.25
2022-10-26T02:46:28.832Z,16.20
2022-10-26T02:47:31.322Z,16.48
2022-10-26T02:48:33.608Z,12.02
2022-10-26T02:49:36.053Z,17.70
2022-10-26T02:50:59.171Z,16.17
2022-10-26T02:52:09.324Z,15.15
2022-10-26T02:53:42.773Z,15.65
2022-10-26T02:54:56.973Z,17.20
2022-10-26T02:56:03.838Z,12.20
2022-10-26T02:57:17.519Z,13.68
2022-10-26T02:58:29.618Z,17.95
2022-10-26T02:59:37.602Z,14.05
2022-10-26T03:00:40.239Z,14.13
2022-10-26T03:01:44.186Z,14.65
2022-10-26T03:02:53.302Z,17.75
2022-10-26T03:03:59.793Z,13.65
2022-10-26T03:05:15.714Z,11.38
2022-10-26T03:06:23.124Z,18.63
2022-10-26T03:07:25.457Z,13.95
2022-10-26T03:09:31.205Z,18.80
2022-10-26T03:10:35.556Z,17.95
2022-10-26T03:11:37.660Z,17.20
2022-10-26T03:12:39.768Z,15.02
2022-10-26T03:13:41.878Z,11.45
2022-10-26T03:14:44.194Z,15.63
2022-10-26T03:15:46.378Z,17.60
2022-10-26T03:16:48.649Z,12.55
2022-10-26T03:17:51.077Z,14.90
2022-10-26T03:18:53.472Z,13.63
2022-10-26T03:19:56.183Z,17.77
2022-10-26T03:20:58.296Z,16.42
2022-10-26T03:22:00.416Z,11.70
2022-10-26T03:23:02.625Z,14.23
2022-10-26T03:24:04.981Z,20.88
2022-10-26T03:26:14.655Z,16.85
2022-10-26T03:27:16.828Z,19.35
2022-10-26T03:28:18.970Z,15.32
2022-10-26T03:29:21.188Z,14.45
2022-10-26T03:30:23.339Z,14.13
2022-10-26T03:31:25.446Z,17.17
2022-10-26T03:32:27.663Z,17.75
2022-10-26T03:33:29.851Z,12.82
2022-10-26T03:34:32.184Z,15.07
2022-10-26T03:35:34.517Z,16.92
2022-10-26T03:36:36.664Z,15.35
2022-10-26T03:37:38.757Z,14.23
2022-10-26T03:38:40.899Z,16.02
2022-10-26T03:39:43.070Z,14.68
2022-10-26T03:40:48.465Z,33.33
2022-10-26T03:41:50.730Z,12.85
2022-10-26T03:42:53.085Z,16.25
2022-10-26T03:43:55.288Z,18.10
2022-10-26T03:44:57.460Z,18.48
2022-10-26T03:45:59.656Z,17.20
2022-10-26T03:47:01.825Z,14.50
2022-10-26T03:48:04.312Z,13.32
2022-10-26T03:49:06.483Z,15.30
2022-10-26T03:50:09.153Z,14.60
2022-10-26T03:51:11.291Z,16.58
2022-10-26T03:52:13.386Z,17.27
2022-10-26T03:53:15.680Z,17.25
2022-10-26T03:54:18.475Z,13.93
2022-10-26T03:55:20.719Z,11.55
2022-10-26T03:56:23.068Z,12.50
2022-10-26T03:57:25.231Z,13.50
2022-10-26T03:58:27.417Z,11.38
2022-10-26T03:59:29.623Z,12.55
2022-10-26T04:00:31.817Z,17.33
2022-10-26T04:01:34.064Z,15.13
2022-10-26T04:02:36.897Z,12.27
2022-10-26T04:03:39.106Z,15.15
2022-10-26T04:04:41.315Z,20.80
2022-10-26T04:05:43.487Z,16.85
2022-10-26T04:07:56.631Z,15.48
2022-10-26T04:09:02.379Z,16.85
2022-10-26T04:10:05.979Z,17.38
2022-10-26T04:11:08.205Z,17.02
2022-10-26T04:12:10.348Z,16.88
2022-10-26T04:13:12.526Z,16.20
2022-10-26T04:14:14.703Z,15.13
2022-10-26T04:15:18.838Z,12.45
2022-10-26T04:16:21.502Z,13.23
2022-10-26T04:17:24.790Z,22.25
2022-10-26T04:18:27.026Z,14.20
2022-10-26T04:19:29.180Z,20.85
2022-10-26T04:20:33.149Z,16.27
2022-10-26T04:21:35.505Z,17.70
2022-10-26T04:22:38.175Z,24.13
2022-10-26T04:23:40.306Z,16.50
2022-10-26T04:24:42.462Z,15.82
2022-10-26T04:25:45.087Z,21.88
2022-10-26T04:26:47.227Z,15.35
2022-10-26T04:27:49.543Z,14.57
2022-10-26T04:28:51.867Z,16.95
2022-10-26T04:29:53.979Z,14.43
2022-10-26T04:30:56.177Z,14.98
2022-10-26T04:31:58.272Z,18.13
2022-10-26T04:33:00.779Z,17.35
2022-10-26T04:34:02.985Z,21.60
2022-10-26T04:35:05.456Z,15.35
2022-10-26T04:36:08.127Z,16.10
2022-10-26T04:37:10.392Z,16.42
2022-10-26T04:38:12.524Z,18.08
2022-10-26T04:39:14.742Z,16.73
2022-10-26T04:40:17.017Z,16.38
2022-10-26T04:41:19.331Z,16.20
2022-10-26T04:42:21.609Z,16.17
2022-10-26T04:43:24.044Z,19.58
2022-10-26T04:44:26.233Z,17.60
2022-10-26T04:45:30.694Z,16.88
2022-10-26T04:46:32.960Z,18.77
2022-10-26T04:47:35.083Z,16.52
2022-10-26T04:48:37.195Z,18.45
2022-10-26T04:49:39.334Z,15.18
2022-10-26T04:50:41.503Z,13.13
2022-10-26T04:51:44.402Z,17.40
2022-10-26T04:52:51.153Z,19.42
2022-10-26T04:53:54.940Z,17.33
2022-10-26T04:54:57.031Z,21.17
2022-10-26T04:56:00.782Z,17.60
2022-10-26T04:57:03.033Z,22.85
2022-10-26T04:58:06.107Z,15.77
2022-10-26T04:59:08.249Z,16.38
2022-10-26T05:00:11.172Z,17.67
2022-10-26T05:01:13.367Z,13.27
2022-10-26T05:02:15.791Z,14.38
2022-10-26T05:03:17.978Z,14.98
2022-10-26T05:04:20.055Z,19.08
2022-10-26T05:05:22.166Z,16.92
2022-10-26T05:06:24.271Z,13.45
2022-10-26T05:07:26.409Z,14.13
2022-10-26T05:08:31.570Z,19.10
2022-10-26T05:09:33.678Z,14.73
2022-10-26T05:10:35.855Z,16.85
2022-10-26T05:11:37.959Z,15.73
2022-10-26T05:12:40.061Z,17.85
2022-10-26T05:13:42.171Z,15.63
2022-10-26T05:14:44.284Z,16.17
2022-10-26T05:15:46.499Z,16.13
2022-10-26T05:16:51.078Z,12.60
2022-10-26T05:18:02.805Z,14.25
2022-10-26T05:19:04.969Z,14.98
2022-10-26T05:20:10.886Z,14.35
2022-10-26T05:21:19.201Z,15.38
2022-10-26T05:22:22.671Z,15.55
2022-10-26T05:23:24.995Z,15.32
2022-10-26T05:24:27.175Z,15.80
2022-10-26T05:25:31.525Z,12.85
2022-10-26T05:26:33.686Z,18.15
2022-10-26T05:27:35.812Z,14.82
2022-10-26T05:28:37.954Z,15.25
2022-10-26T05:29:40.121Z,11.10
2022-10-26T05:30:43.927Z,13.70
2022-10-26T05:31:46.113Z,13.77
2022-10-26T05:32:54.672Z,22.92
2022-10-26T05:33:56.848Z,14.10
2022-10-26T05:34:58.933Z,17.20
2022-10-26T05:36:01.030Z,14.73
2022-10-26T05:37:03.137Z,13.73
2022-10-26T05:38:16.886Z,12.68
2022-10-26T05:39:19.120Z,12.85
2022-10-26T05:40:21.457Z,17.83
2022-10-26T05:41:23.573Z,14.18
2022-10-26T05:42:25.655Z,16.80
2022-10-26T05:43:27.978Z,18.98
2022-10-26T05:44:30.103Z,15.43
2022-10-26T05:45:32.227Z,13.70
2022-10-26T05:46:34.369Z,14.85
2022-10-26T05:47:43.338Z,16.55
2022-10-26T05:48:45.507Z,15.48
2022-10-26T05:49:48.869Z,17.63
2022-10-26T05:50:51.233Z,13.52
2022-10-26T05:51:53.346Z,11.88
2022-10-26T05:52:55.879Z,14.48
2022-10-26T05:53:58.008Z,15.27
2022-10-26T05:55:00.179Z,15.20
2022-10-26T05:56:04.938Z,14.23
2022-10-26T05:57:13.718Z,12.13
2022-10-26T05:58:16.574Z,16.83
2022-10-26T05:59:18.954Z,13.23
2022-10-26T06:00:23.879Z,12.70
2022-10-26T06:01:39.815Z,13.30
2022-10-26T06:03:25.908Z,13.93
2022-10-26T06:04:43.193Z,13.38
2022-10-26T06:05:53.308Z,12.68
2022-10-26T06:06:56.619Z,15.85
2022-10-26T06:07:58.957Z,12.18
2022-10-26T06:09:01.357Z,14.68
2022-10-26T06:10:04.479Z,17.05
2022-10-26T06:11:07.810Z,13.50
2022-10-26T06:12:12.703Z,13.13
2022-10-26T06:13:17.296Z,13.02
2022-10-26T06:14:19.876Z,15.43
2022-10-26T06:15:22.578Z,15.63
2022-10-26T06:16:30.483Z,13.95
2022-10-26T06:17:38.660Z,14.02
2022-10-26T06:18:43.481Z,15.15
2022-10-26T06:20:22.182Z,13.65
2022-10-26T06:21:33.116Z,16.00
2022-10-26T06:25:08.441Z,18.95
2022-10-26T06:26:27.571Z,16.83
2022-10-26T06:27:56.952Z,15.13
2022-10-26T06:29:17.960Z,18.85
2022-10-26T06:31:25.333Z,16.45
2022-10-26T06:32:28.154Z,16.77
2022-10-26T06:33:31.013Z,11.98
2022-10-26T06:34:36.167Z,13.50
2022-10-26T06:35:40.878Z,15.15
2022-10-26T06:36:43.449Z,11.98
2022-10-26T06:37:46.544Z,18.02
2022-10-26T06:38:54.162Z,15.93
2022-10-26T06:39:58.515Z,11.93
2022-10-26T06:41:01.773Z,14.65
2022-10-26T06:42:04.305Z,14.18
2022-10-26T06:43:16.823Z,10.90
2022-10-26T06:44:23.712Z,17.70
2022-10-26T06:45:26.226Z,13.07
2022-10-26T06:46:37.683Z,17.20
2022-10-26T06:48:02.598Z,14.70
2022-10-26T06:49:19.927Z,13.77
2022-10-26T06:50:41.056Z,12.25
2022-10-26T06:52:07.657Z,13.95
2022-10-26T06:53:17.951Z,11.25
2022-10-26T06:54:43.342Z,12.25
2022-10-26T06:55:47.520Z,13.43
2022-10-26T06:56:51.294Z,11.88
2022-10-26T06:57:53.578Z,11.15
2022-10-26T06:59:03.451Z,10.55
2022-10-26T07:00:18.919Z,10.35
2022-10-26T07:01:21.206Z,10.68
2022-10-26T07:02:24.050Z,12.75
2022-10-26T07:03:26.298Z,11.77
2022-10-26T07:04:28.475Z,8.95
2022-10-26T07:05:30.602Z,10.52
2022-10-26T07:06:34.426Z,11.55
2022-10-26T07:07:44.868Z,12.65
2022-10-26T07:08:47.001Z,15.60
2022-10-26T07:09:49.550Z,10.23
2022-10-26T07:10:51.787Z,13.40
2022-10-26T07:11:53.930Z,15.70
2022-10-26T07:12:56.037Z,11.38
2022-10-26T07:13:58.271Z,10.07
2022-10-26T07:15:00.874Z,11.32
2022-10-26T07:16:03.344Z,9.23
2022-10-26T07:17:05.938Z,9.43
2022-10-26T07:18:08.680Z,11.73
2022-10-26T07:19:10.847Z,11.20
2022-10-26T07:20:13.543Z,17.83
2022-10-26T07:21:15.677Z,11.40
2022-10-26T07:22:18.096Z,11.88
2022-10-26T07:23:20.374Z,12.85
2022-10-26T07:24:23.748Z,10.45
2022-10-26T07:25:26.461Z,11.07
2022-10-26T07:26:28.651Z,13.27
2022-10-26T07:27:30.773Z,9.30
2022-10-26T07:28:32.886Z,10.45
2022-10-26T07:29:35.450Z,11.40
2022-10-26T07:30:39.210Z,15.00
2022-10-26T07:31:41.460Z,11.95
2022-10-26T07:32:43.769Z,12.85
2022-10-26T07:33:46.184Z,12.30
2022-10-26T07:34:48.264Z,11.27
2022-10-26T07:35:50.380Z,12.50
2022-10-26T07:36:52.806Z,9.70
2022-10-26T07:37:59.280Z,9.50
2022-10-26T07:39:01.487Z,10.32
2022-10-26T07:40:06.620Z,12.27
2022-10-26T07:41:09.094Z,16.98
2022-10-26T07:42:11.283Z,9.65
2022-10-26T07:43:13.401Z,12.73
2022-10-26T07:44:15.591Z,11.70
2022-10-26T07:45:17.744Z,7.65
2022-10-26T07:46:19.882Z,8.23
2022-10-26T07:47:22.119Z,10.15
2022-10-26T07:48:24.316Z,11.15
2022-10-26T07:49:27.889Z,7.50
2022-10-26T07:50:30.283Z,8.10
2022-10-26T07:51:32.422Z,8.88
2022-10-26T07:52:36.968Z,9.73
2022-10-26T07:53:39.236Z,10.52
2022-10-26T07:54:41.418Z,11.50
2022-10-26T07:55:43.544Z,9.90
2022-10-26T07:56:48.639Z,12.18
2022-10-26T07:57:54.426Z,10.57
2022-10-26T07:58:58.108Z,10.90
2022-10-26T08:00:00.226Z,8.35
2022-10-26T08:01:07.625Z,8.90
2022-10-26T08:02:10.265Z,9.48
2022-10-26T08:03:12.397Z,8.80
2022-10-26T08:04:15.122Z,11.48
2022-10-26T08:05:17.737Z,7.47
2022-10-26T08:06:23.532Z,7.25
2022-10-26T08:07:26.137Z,8.60
2022-10-26T08:08:28.353Z,6.53
2022-10-26T08:09:30.572Z,6.25
2022-10-26T08:10:32.728Z,14.40
2022-10-26T08:11:37.028Z,7.45
2022-10-26T08:12:39.882Z,4.90
2022-10-26T08:13:42.489Z,10.05
2022-10-26T08:14:45.104Z,10.43
2022-10-26T08:15:47.843Z,9.07
2022-10-26T08:16:52.447Z,9.02
2022-10-26T08:17:54.818Z,9.35
2022-10-26T08:18:57.154Z,6.97
2022-10-26T08:19:59.320Z,7.05
2022-10-26T08:21:11.212Z,6.65
2022-10-26T08:23:16.917Z,5.82
2022-10-26T08:24:19.031Z,5.60
2022-10-26T08:25:21.599Z,9.32
2022-10-26T08:26:23.951Z,5.60
2022-10-26T08:27:26.196Z,4.65
2022-10-26T08:28:29.516Z,9.13
2022-10-26T08:29:31.670Z,6.40
2022-10-26T08:31:37.146Z,5.40
2022-10-26T08:32:39.317Z,7.90
2022-10-26T08:33:44.906Z,5.82
2022-10-26T08:34:47.507Z,8.25
2022-10-26T08:35:54.800Z,6.82
2022-10-26T08:36:56.936Z,11.18
2022-10-26T08:37:59.107Z,6.30
2022-10-26T08:39:01.259Z,9.65
2022-10-26T08:40:04.915Z,7.15
2022-10-26T08:41:09.180Z,7.57
2022-10-26T08:42:18.590Z,7.35
2022-10-26T08:44:02.450Z,8.15
2022-10-26T08:45:17.726Z,5.47
2022-10-26T08:46:25.822Z,5.85
2022-10-26T08:47:39.389Z,4.80
2022-10-26T08:48:50.853Z,7.25
2022-10-26T08:50:01.667Z,7.90
2022-10-26T08:52:14.575Z,9.68
2022-10-26T08:53:38.377Z,11.07
2022-10-26T08:54:54.874Z,9.45
2022-10-26T08:56:01.806Z,5.25
2022-10-26T08:57:25.916Z,4.50
2022-10-26T08:58:38.159Z,5.30
2022-10-26T08:59:50.922Z,6.03
2022-10-26T09:00:53.544Z,5.07
2022-10-26T09:01:55.927Z,3.95
2022-10-26T09:02:58.162Z,7.22
2022-10-26T09:05:18.624Z,6.97
2022-10-26T09:06:43.755Z,10.60
2022-10-26T09:08:05.792Z,5.47
2022-10-26T09:09:21.150Z,4.93
2022-10-26T09:10:40.567Z,5.65
2022-10-26T09:11:48.672Z,6.68
2022-10-26T09:13:09.990Z,7.35
2022-10-26T09:14:32.683Z,7.10
2022-10-26T09:15:37.512Z,6.93
2022-10-26T09:16:56.699Z,4.10
2022-10-26T09:18:28.024Z,6.55
2022-10-26T09:19:42.827Z,5.75
2022-10-26T09:20:49.666Z,8.13
2022-10-26T09:22:07.017Z,5.85
2022-10-26T09:23:15.332Z,4.43
2022-10-26T09:24:31.071Z,6.93
2022-10-26T09:25:40.238Z,6.97
2022-10-26T09:26:42.339Z,8.68
2022-10-26T09:27:57.446Z,6.85
2022-10-26T09:29:06.927Z,5.53
2022-10-26T09:30:18.996Z,5.40
2022-10-26T09:31:22.258Z,7.05
2022-10-26T09:32:51.413Z,6.43
2022-10-26T09:33:55.103Z,3.70
2022-10-26T09:35:02.886Z,6.55
2022-10-26T09:36:26.808Z,5.65
2022-10-26T09:37:34.179Z,4.25
2022-10-26T09:38:49.263Z,4.68
2022-10-26T09:40:17.048Z,5.88
2022-10-26T09:41:33.186Z,4.43
2022-10-26T09:43:02.665Z,4.20
2022-10-26T09:44:31.166Z,5.75
2022-10-26T09:45:41.908Z,3.92
2022-10-26T09:46:57.014Z,4.88
2022-10-26T09:48:11.972Z,4.55
2022-10-26T09:49:18.310Z,4.18
2022-10-26T09:50:32.165Z,6.85
2022-10-26T09:51:38.011Z,5.07
2022-10-26T09:52:40.146Z,5.38
2022-10-26T09:53:42.286Z,3.85
2022-10-26T09:54:45.001Z,4.35
2022-10-26T09:55:49.878Z,5.60
2022-10-26T09:56:56.879Z,3.47
2022-10-26T09:58:03.427Z,5.15
2022-10-26T09:59:06.980Z,4.78
2022-10-26T10:00:20.736Z,4.80
2022-10-26T10:01:36.789Z,3.75
2022-10-26T10:02:44.444Z,3.40
2022-10-26T10:03:46.670Z,2.67
2022-10-26T10:04:48.763Z,5.22
2022-10-26T10:05:52.534Z,3.38
2022-10-26T10:07:01.276Z,3.15
2022-10-26T10:08:11.319Z,6.13
2022-10-26T10:09:16.430Z,6.22
2022-10-26T10:10:21.548Z,7.38
2022-10-26T10:11:55.186Z,4.38
2022-10-26T10:12:57.411Z,5.88
2022-10-26T10:14:08.402Z,4.63
2022-10-26T10:15:19.867Z,7.05
2022-10-26T10:16:25.122Z,7.45
2022-10-26T10:17:27.656Z,6.07
2022-10-26T10:18:30.242Z,5.28
2022-10-26T10:19:35.738Z,5.38
2022-10-26T10:20:38.033Z,3.95
2022-10-26T10:21:45.397Z,6.18
2022-10-26T10:23:24.555Z,3.45
2022-10-26T10:24:26.710Z,4.75
2022-10-26T10:25:39.875Z,5.43
2022-10-26T10:27:02.313Z,5.75
2022-10-26T10:28:22.350Z,4.82
2022-10-26T10:29:43.677Z,4.57
2022-10-26T10:30:54.997Z,5.55
2022-10-26T10:32:02.726Z,4.03
2022-10-26T10:33:12.156Z,6.45
2022-10-26T10:34:17.703Z,6.40
2022-10-26T10:35:25.444Z,6.40
2022-10-26T10:36:30.355Z,7.05
2022-10-26T10:37:35.922Z,7.95
2022-10-26T10:38:41.567Z,8.55
2022-10-26T10:39:43.718Z,5.22
2022-10-26T10:41:06.433Z,9.10
2022-10-26T10:42:21.881Z,3.30
2022-10-26T10:43:25.021Z,7.40
2022-10-26T10:44:30.089Z,8.23
2022-10-26T10:45:34.827Z,7.50
2022-10-26T10:46:37.811Z,5.47
2022-10-26T10:48:51.935Z,5.20
2022-10-26T10:49:58.837Z,6.43
2022-10-26T10:51:12.358Z,6.13
2022-10-26T10:52:29.739Z,6.03
2022-10-26T10:53:37.433Z,5.43
2022-10-26T10:54:39.890Z,6.10
2022-10-26T10:55:52.498Z,6.20
2022-10-26T10:57:55.581Z,3.60
2022-10-26T10:59:27.085Z,9.40
2022-10-26T11:00:29.640Z,7.43
2022-10-26T11:01:38.855Z,8.40
2022-10-26T11:03:26.209Z,6.22
2022-10-26T11:04:46.881Z,5.30
2022-10-26T11:05:48.993Z,5.15
2022-10-26T11:06:52.591Z,6.07
2022-10-26T11:07:58.029Z,5.35
2022-10-26T11:09:07.997Z,4.53
2022-10-26T11:10:16.028Z,5.68
2022-10-26T11:11:45.461Z,5.70
2022-10-26T11:12:56.492Z,5.93
2022-10-26T11:14:28.791Z,3.88
2022-10-26T11:15:35.572Z,5.28
2022-10-26T11:16:37.692Z,7.03
2022-10-26T11:17:56.134Z,5.40
2022-10-26T11:19:12.607Z,8.02
2022-10-26T11:20:21.154Z,7.55
2022-10-26T11:21:29.471Z,5.55
2022-10-26T11:22:39.745Z,8.18
2022-10-26T11:23:52.917Z,4.93
2022-10-26T11:25:03.179Z,6.03
2022-10-26T11:26:43.607Z,4.28
2022-10-26T11:28:39.360Z,5.25
2022-10-26T11:29:48.386Z,11.75
2022-10-26T11:30:58.907Z,8.05
2022-10-26T11:32:08.634Z,6.80
2022-10-26T11:33:15.518Z,7.30
2022-10-26T11:34:40.864Z,6.55
2022-10-26T11:35:56.537Z,10.10
2022-10-26T11:37:34.583Z,6.13
2022-10-26T11:38:58.688Z,3.40
2022-10-26T11:40:20.676Z,2.95
2022-10-26T11:41:33.674Z,3.60
2022-10-26T11:42:46.338Z,3.03
2022-10-26T11:43:51.249Z,4.80
2022-10-26T11:45:32.351Z,6.28
2022-10-26T11:46:49.774Z,3.08
2022-10-26T11:47:58.023Z,4.35
2022-10-26T11:49:17.497Z,3.90
2022-10-26T11:50:27.531Z,4.85
2022-10-26T11:51:39.162Z,2.63
2022-10-26T11:52:48.198Z,3.00
2022-10-26T11:53:52.091Z,4.70
2022-10-26T11:54:56.969Z,5.50
2022-10-26T11:55:59.741Z,6.28
2022-10-26T11:57:04.805Z,3.75
2022-10-26T11:58:10.498Z,3.65
2022-10-26T11:59:22.629Z,6.47
2022-10-26T12:00:26.981Z,3.20
2022-10-26T12:01:30.546Z,4.53
2022-10-26T12:02:39.984Z,2.50
2022-10-26T12:03:47.566Z,6.50
2022-10-26T12:04:57.861Z,4.40
2022-10-26T12:06:00.047Z,7.53
2022-10-26T12:07:06.956Z,5.35
2022-10-26T12:08:51.680Z,5.13
2022-10-26T12:09:55.635Z,3.20
2022-10-26T12:11:09.446Z,6.43
2022-10-26T12:12:37.182Z,6.25
2022-10-26T12:13:46.589Z,6.05
2022-10-26T12:15:09.891Z,4.78
2022-10-26T12:16:43.182Z,3.83
2022-10-26T12:17:52.875Z,4.20
2022-10-26T12:19:01.765Z,3.10
2022-10-26T12:20:06.686Z,2.55
2022-10-26T12:21:10.776Z,5.03
2022-10-26T12:22:16.279Z,4.90
2022-10-26T12:23:28.137Z,7.85
2022-10-26T12:24:45.475Z,4.20
2022-10-26T12:25:47.608Z,9.40
2022-10-26T12:27:33.264Z,2.38
2022-10-26T12:28:35.428Z,6.90
2022-10-26T12:29:49.112Z,4.13
2022-10-26T12:30:51.311Z,4.35
2022-10-26T12:31:53.545Z,2.33
2022-10-26T12:33:29.150Z,7.85
2022-10-26T12:34:31.293Z,3.25
2022-10-26T12:35:42.024Z,4.10
2022-10-26T12:38:23.935Z,6.50
2022-10-26T12:39:30.492Z,5.47
2022-10-26T12:40:32.550Z,6.45
2022-10-26T12:41:39.080Z,4.25
2022-10-26T12:42:41.802Z,4.40
2022-10-26T12:44:47.223Z,3.03
2022-10-26T12:46:10.907Z,3.70
2022-10-26T12:47:28.168Z,2.80
2022-10-26T12:48:48.320Z,2.10
2022-10-26T12:49:59.598Z,3.33
2022-10-26T12:51:18.867Z,2.92
2022-10-26T12:52:26.146Z,2.95
2022-10-26T12:53:28.486Z,3.83
2022-10-26T12:54:41.805Z,6.65
2022-10-26T12:55:47.571Z,6.28
2022-10-26T12:56:49.650Z,2.45
2022-10-26T12:58:12.591Z,5.32
2022-10-26T12:59:23.994Z,2.90
2022-10-26T13:00:27.945Z,3.35
2022-10-26T13:01:45.406Z,3.80
2022-10-26T13:02:56.394Z,5.05
2022-10-26T13:04:07.638Z,4.63
2022-10-26T13:05:34.445Z,7.72
2022-10-26T13:07:10.375Z,4.70
2022-10-26T13:08:13.985Z,4.63
2022-10-26T13:09:27.585Z,2.03
2022-10-26T13:10:29.779Z,4.70
2022-10-26T13:11:35.735Z,4.05
2022-10-26T13:12:59.642Z,4.38
2022-10-26T13:14:08.715Z,3.95
2022-10-26T13:15:24.698Z,3.33
2022-10-26T13:16:28.603Z,4.72
2022-10-26T13:18:45.094Z,6.68
2022-10-26T13:19:49.379Z,6.57
2022-10-26T13:21:06.899Z,4.43
2022-10-26T13:22:16.033Z,4.90
2022-10-26T13:23:27.219Z,4.93
2022-10-26T13:24:32.522Z,4.78
2022-10-26T13:25:34.809Z,3.70
2022-10-26T13:27:05.687Z,6.57
2022-10-26T13:28:32.621Z,5.80
2022-10-26T13:30:03.785Z,6.10
2022-10-26T13:31:32.779Z,7.75
2022-10-26T13:32:48.301Z,4.07
2022-10-26T13:33:54.503Z,9.38
2022-10-26T13:35:00.059Z,3.70
2022-10-26T13:36:06.382Z,6.50
2022-10-26T13:37:23.407Z,3.90
2022-10-26T13:38:32.096Z,6.95
2022-10-26T13:39:41.911Z,4.15
2022-10-26T13:40:44.646Z,4.30
2022-10-26T13:41:51.197Z,3.63
2022-10-26T13:42:58.794Z,6.10
2022-10-26T13:44:06.290Z,4.50
2022-10-26T13:45:13.815Z,3.88
2022-10-26T13:46:26.247Z,4.40
2022-10-26T13:47:34.280Z,1.90
2022-10-26T13:48:39.499Z,2.55
2022-10-26T13:49:45.943Z,6.38
2022-10-26T13:50:52.560Z,4.75
2022-10-26T13:51:56.119Z,4.97
2022-10-26T13:53:08.145Z,2.97
2022-10-26T13:54:23.287Z,3.88
2022-10-26T13:55:37.831Z,6.47
2022-10-26T13:57:12.281Z,8.35
2022-10-26T13:58:33.614Z,9.80
2022-10-26T13:59:41.625Z,1.67
2022-10-26T14:01:16.103Z,2.88
2022-10-26T14:02:19.937Z,2.78
2022-10-26T14:03:22.153Z,4.38
2022-10-26T14:04:28.366Z,3.03
2022-10-26T14:05:31.571Z,4.32
2022-10-26T14:06:40.272Z,8.25
2022-10-26T14:08:51.724Z,2.33
2022-10-26T14:09:56.460Z,6.68
2022-10-26T14:10:59.841Z,2.97
2022-10-26T14:12:02.490Z,3.65
2022-10-26T14:13:15.895Z,9.38
2022-10-26T14:14:22.609Z,4.85
2022-10-26T14:15:30.851Z,6.50
2022-10-26T14:16:34.498Z,5.82
2022-10-26T14:17:36.727Z,2.15
2022-10-26T14:18:39.288Z,5.18
2022-10-26T14:19:41.617Z,8.15
2022-10-26T14:20:50.219Z,2.67
2022-10-26T14:21:53.252Z,4.70
2022-10-26T14:22:55.455Z,4.55
2022-10-26T14:23:59.575Z,5.70
2022-10-26T14:25:01.784Z,4.68
2022-10-26T14:26:35.688Z,5.97
2022-10-26T14:27:40.966Z,2.55
2022-10-26T14:28:50.421Z,6.18
2022-10-26T14:30:17.129Z,3.72
2022-10-26T14:31:26.662Z,2.58
2022-10-26T14:32:32.073Z,2.55
2022-10-26T14:33:34.201Z,2.90
2022-10-26T14:34:36.333Z,5.78
2022-10-26T14:35:42.034Z,4.07
2022-10-26T14:36:55.438Z,3.67
2022-10-26T14:38:03.242Z,5.15
2022-10-26T14:39:13.094Z,4.05
2022-10-26T14:40:27.588Z,3.63
2022-10-26T14:41:31.008Z,2.60
2022-10-26T14:42:38.440Z,4.97
2022-10-26T14:43:40.621Z,3.95
2022-10-26T14:44:42.885Z,7.97
2022-10-26T14:45:50.508Z,5.68
2022-10-26T14:46:52.756Z,5.03
2022-10-26T14:47:55.358Z,6.38
2022-10-26T14:48:59.837Z,5.22
2022-10-26T14:50:03.076Z,3.42
2022-10-26T14:51:16.246Z,5.20
2022-10-26T14:52:32.503Z,3.97
2022-10-26T14:53:40.855Z,3.22
2022-10-26T14:54:57.704Z,2.35
2022-10-26T14:56:00.309Z,5.07
2022-10-26T14:57:08.586Z,2.63
2022-10-26T14:59:35.413Z,3.08
2022-10-26T15:00:37.610Z,3.92
2022-10-26T15:02:01.538Z,2.42
2022-10-26T15:03:03.920Z,4.60
2022-10-26T15:04:07.312Z,5.72
2022-10-26T15:05:34.799Z,4.38
2022-10-26T15:06:43.554Z,5.50
2022-10-26T15:07:45.880Z,3.70
2022-10-26T15:08:56.883Z,5.63
2022-10-26T15:09:59.445Z,4.82
2022-10-26T15:11:07.811Z,2.50
2022-10-26T15:12:31.848Z,5.15
2022-10-26T15:13:34.000Z,58.17
2022-10-26T15:14:36.416Z,6.55